createdAt,value
2023-04-26T00:00:26.720Z,31.94
2023-04-26T00:01:26.672Z,31.95
2023-04-26T00:02:26.762Z,31.92
2023-04-26T00:03:26.786Z,31.93
2023-04-26T00:04:26.887Z,31.95
2023-04-26T00:05:26.629Z,31.95
2023-04-26T00:06:26.536Z,31.93
2023-04-26T00:07:26.503Z,31.92
2023-04-26T00:08:26.500Z,31.92
2023-04-26T00:09:26.462Z,31.98
2023-04-26T00:10:26.439Z,31.94
2023-04-26T00:11:26.420Z,31.93
2023-04-26T00:12:26.391Z,31.93
2023-04-26T00:13:26.372Z,31.95
2023-04-26T00:14:26.347Z,32.03
2023-04-26T00:15:26.319Z,31.93
2023-04-26T00:16:26.377Z,31.95
2023-04-26T00:17:26.272Z,31.95
2023-04-26T00:18:26.254Z,31.95
2023-04-26T00:19:26.223Z,31.93
2023-04-26T00:20:26.215Z,31.95
2023-04-26T00:21:26.175Z,31.98
2023-04-26T00:22:26.152Z,31.98
2023-04-26T00:23:26.148Z,31.94
2023-04-26T00:24:26.111Z,31.93
2023-04-26T00:25:26.095Z,31.95
2023-04-26T00:26:26.074Z,31.99
2023-04-26T00:27:26.067Z,31.99
2023-04-26T00:28:26.046Z,31.97
2023-04-26T00:29:26.020Z,31.99
2023-04-26T00:30:25.991Z,31.97
2023-04-26T00:31:26.009Z,31.96
2023-04-26T00:32:26.036Z,31.98
2023-04-26T00:33:25.954Z,31.98
2023-04-26T00:34:25.924Z,31.93
2023-04-26T00:35:25.913Z,31.92
2023-04-26T00:36:25.865Z,31.94
2023-04-26T00:37:25.860Z,31.97
2023-04-26T00:38:25.835Z,31.93
2023-04-26T00:39:25.860Z,31.94
2023-04-26T00:40:25.798Z,31.95
2023-04-26T00:41:25.778Z,31.96
2023-04-26T00:42:25.760Z,31.95
2023-04-26T00:43:25.738Z,31.97
2023-04-26T00:44:25.740Z,31.95
2023-04-26T00:45:25.706Z,31.95
2023-04-26T00:46:25.787Z,31.97
2023-04-26T00:47:25.830Z,31.98
2023-04-26T00:48:25.647Z,31.96
2023-04-26T00:49:25.628Z,32.03
2023-04-26T00:50:25.629Z,31.99
2023-04-26T00:51:25.577Z,31.97
2023-04-26T00:52:25.559Z,31.95
2023-04-26T00:53:25.541Z,31.98
2023-04-26T00:54:25.513Z,31.95
2023-04-26T00:55:25.505Z,32.00
2023-04-26T00:56:25.474Z,31.98
2023-04-26T00:57:25.441Z,31.97
2023-04-26T00:58:25.417Z,31.97
2023-04-26T00:59:25.413Z,31.96
2023-04-26T01:00:25.376Z,31.97
2023-04-26T01:01:25.391Z,31.96
2023-04-26T01:02:25.390Z,31.96
2023-04-26T01:03:25.465Z,32.00
2023-04-26T01:04:25.400Z,31.97
2023-04-26T01:05:25.281Z,31.96
2023-04-26T01:06:25.244Z,31.99
2023-04-26T01:07:25.243Z,31.98
2023-04-26T01:08:25.204Z,31.99
2023-04-26T01:09:25.190Z,31.96
2023-04-26T01:10:25.168Z,31.96
2023-04-26T01:11:25.144Z,31.95
2023-04-26T01:12:25.138Z,31.99
2023-04-26T01:13:25.096Z,31.98
2023-04-26T01:14:25.096Z,32.01
2023-04-26T01:15:25.072Z,31.99
2023-04-26T01:16:25.090Z,31.99
2023-04-26T01:17:25.054Z,31.97
2023-04-26T01:18:24.994Z,32.00
2023-04-26T01:19:24.969Z,31.97
2023-04-26T01:20:24.969Z,31.97
2023-04-26T01:21:24.943Z,31.94
2023-04-26T01:22:24.918Z,31.96
2023-04-26T01:23:24.886Z,31.95
2023-04-26T01:24:24.852Z,31.93
2023-04-26T01:25:24.844Z,31.96
2023-04-26T01:26:24.826Z,31.97
2023-04-26T01:27:24.810Z,31.98
2023-04-26T01:28:24.793Z,31.98
2023-04-26T01:29:24.781Z,31.98
2023-04-26T01:30:24.744Z,31.98
2023-04-26T01:31:24.739Z,31.98
2023-04-26T01:32:24.729Z,31.98
2023-04-26T01:33:24.686Z,31.97
2023-04-26T01:34:24.670Z,31.98
2023-04-26T01:35:24.634Z,31.97
2023-04-26T01:36:24.619Z,31.98
2023-04-26T01:37:24.595Z,31.95
2023-04-26T01:38:24.588Z,31.97
2023-04-26T01:39:24.565Z,31.96
2023-04-26T01:40:24.556Z,31.97
2023-04-26T01:41:24.509Z,31.96
2023-04-26T01:42:24.486Z,31.96
2023-04-26T01:43:24.468Z,31.97
2023-04-26T01:44:24.437Z,31.97
2023-04-26T01:45:24.445Z,31.97
2023-04-26T01:46:24.440Z,31.98
2023-04-26T01:47:24.434Z,31.96
2023-04-26T01:48:24.371Z,31.98
2023-04-26T01:49:24.325Z,31.99
2023-04-26T01:50:24.270Z,31.99
2023-04-26T01:51:24.234Z,31.99
2023-04-26T01:52:24.218Z,31.97
2023-04-26T01:53:24.203Z,31.97
2023-04-26T01:54:24.179Z,31.97
2023-04-26T01:55:24.153Z,31.97
2023-04-26T01:56:24.149Z,31.96
2023-04-26T01:57:24.118Z,31.98
2023-04-26T01:58:24.100Z,31.99
2023-04-26T01:59:24.088Z,31.98
2023-04-26T02:00:24.075Z,31.96
2023-04-26T02:01:24.248Z,31.98
2023-04-26T02:02:24.067Z,31.99
2023-04-26T02:03:24.174Z,31.96
2023-04-26T02:04:23.979Z,31.98
2023-04-26T02:05:24.082Z,32.01
2023-04-26T02:06:23.934Z,31.98
2023-04-26T02:07:23.915Z,31.98
2023-04-26T02:08:23.882Z,31.97
2023-04-26T02:09:23.862Z,31.99
2023-04-26T02:10:23.850Z,31.99
2023-04-26T02:11:23.933Z,31.97
2023-04-26T02:12:23.808Z,31.98
2023-04-26T02:13:23.778Z,31.98
2023-04-26T02:14:23.749Z,31.98
2023-04-26T02:15:23.750Z,31.97
2023-04-26T02:16:23.778Z,31.99
2023-04-26T02:17:23.715Z,31.98
2023-04-26T02:18:23.682Z,31.97
2023-04-26T02:19:23.639Z,31.97
2023-04-26T02:20:23.619Z,31.97
2023-04-26T02:21:23.590Z,31.99
2023-04-26T02:22:23.563Z,31.96
2023-04-26T02:23:23.552Z,31.96
2023-04-26T02:24:23.528Z,31.96
2023-04-26T02:25:23.517Z,31.98
2023-04-26T02:26:23.496Z,31.97
2023-04-26T02:27:23.477Z,31.99
2023-04-26T02:28:23.444Z,31.96
2023-04-26T02:29:36.367Z,31.95
2023-04-26T02:30:24.323Z,31.96
2023-04-26T02:31:23.420Z,31.98
2023-04-26T02:32:23.190Z,31.95
2023-04-26T02:33:23.082Z,31.98
2023-04-26T02:34:22.985Z,31.97
2023-04-26T02:35:22.890Z,31.97
2023-04-26T02:36:22.805Z,31.96
2023-04-26T02:37:22.717Z,31.97
2023-04-26T02:38:22.651Z,31.97
2023-04-26T02:39:22.602Z,31.95
2023-04-26T02:40:22.562Z,31.94
2023-04-26T02:41:22.518Z,31.95
2023-04-26T02:42:22.485Z,31.95
2023-04-26T02:43:22.454Z,31.97
2023-04-26T02:44:22.420Z,31.97
2023-04-26T02:45:22.397Z,31.94
2023-04-26T02:46:22.398Z,31.96
2023-04-26T02:47:22.389Z,31.94
2023-04-26T02:48:22.337Z,31.96
2023-04-26T02:49:22.320Z,31.95
2023-04-26T02:50:22.304Z,31.94
2023-04-26T02:51:22.293Z,31.95
2023-04-26T02:52:22.276Z,31.95
2023-04-26T02:53:22.270Z,31.94
2023-04-26T02:54:22.256Z,31.94
2023-04-26T02:55:22.222Z,31.93
2023-04-26T02:56:22.214Z,31.95
2023-04-26T02:57:22.214Z,31.92
2023-04-26T02:58:22.191Z,31.94
2023-04-26T02:59:22.138Z,31.94
2023-04-26T03:00:22.121Z,31.92
2023-04-26T03:01:22.134Z,31.93
2023-04-26T03:02:22.186Z,31.90
2023-04-26T03:03:22.150Z,31.89
2023-04-26T03:04:22.081Z,31.90
2023-04-26T03:05:22.003Z,31.91
2023-04-26T03:06:21.988Z,31.86
2023-04-26T03:07:21.978Z,31.92
2023-04-26T03:08:21.942Z,31.89
2023-04-26T03:09:21.922Z,31.88
2023-04-26T03:10:21.888Z,31.87
2023-04-26T03:11:21.873Z,31.94
2023-04-26T03:12:21.855Z,31.92
2023-04-26T03:13:21.830Z,31.91
2023-04-26T03:14:21.810Z,31.95
2023-04-26T03:15:21.774Z,31.87
2023-04-26T03:16:21.809Z,31.84
2023-04-26T03:17:21.724Z,31.79
2023-04-26T03:18:21.686Z,31.79
2023-04-26T03:19:21.665Z,31.79
2023-04-26T03:20:21.640Z,31.73
2023-04-26T03:21:21.618Z,31.73
2023-04-26T03:22:21.602Z,31.82
2023-04-26T03:23:21.575Z,31.84
2023-04-26T03:24:21.542Z,31.86
2023-04-26T03:25:21.513Z,31.79
2023-04-26T03:26:21.487Z,31.74
2023-04-26T03:27:21.449Z,31.83
2023-04-26T03:28:21.466Z,31.76
2023-04-26T03:29:21.402Z,31.83
2023-04-26T03:30:21.412Z,31.76
2023-04-26T03:31:21.414Z,31.84
2023-04-26T03:32:21.328Z,31.78
2023-04-26T03:33:21.291Z,31.71
2023-04-26T03:34:21.272Z,31.75
2023-04-26T03:35:21.251Z,31.80
2023-04-26T03:36:21.216Z,31.82
2023-04-26T03:37:21.182Z,31.77
2023-04-26T03:38:21.154Z,31.71
2023-04-26T03:39:21.139Z,31.77
2023-04-26T03:40:21.103Z,31.69
2023-04-26T03:41:21.077Z,31.62
2023-04-26T03:42:21.054Z,31.69
2023-04-26T03:43:21.051Z,31.74
2023-04-26T03:44:21.075Z,31.71
2023-04-26T03:45:20.964Z,31.65
2023-04-26T03:46:20.968Z,31.62
2023-04-26T03:47:20.902Z,31.66
2023-04-26T03:48:20.882Z,31.69
2023-04-26T03:49:20.850Z,31.72
2023-04-26T03:50:20.826Z,31.62
2023-04-26T03:51:20.779Z,31.65
2023-04-26T03:52:20.745Z,31.68
2023-04-26T03:53:20.727Z,31.72
2023-04-26T03:54:20.697Z,31.69
2023-04-26T03:55:20.665Z,31.61
2023-04-26T03:56:20.638Z,31.63
2023-04-26T03:57:20.640Z,31.62
2023-04-26T03:58:20.566Z,31.60
2023-04-26T03:59:20.656Z,31.61
2023-04-26T04:00:20.510Z,31.58
2023-04-26T04:01:20.484Z,31.59
2023-04-26T04:02:20.478Z,31.53
2023-04-26T04:03:20.588Z,31.58
2023-04-26T04:04:20.568Z,31.59
2023-04-26T04:05:20.386Z,31.61
2023-04-26T04:06:20.295Z,31.58
2023-04-26T04:07:20.258Z,31.70
2023-04-26T04:08:20.219Z,31.56
2023-04-26T04:09:20.194Z,31.54
2023-04-26T04:10:20.159Z,31.54
2023-04-26T04:11:20.122Z,31.50
2023-04-26T04:12:20.093Z,31.53
2023-04-26T04:13:20.049Z,31.56
2023-04-26T04:14:20.030Z,31.64
2023-04-26T04:15:19.996Z,31.66
2023-04-26T04:16:19.998Z,31.71
2023-04-26T04:17:19.913Z,31.74
2023-04-26T04:18:19.885Z,31.59
2023-04-26T04:19:19.849Z,31.55
2023-04-26T04:20:19.815Z,31.63
2023-04-26T04:21:19.783Z,31.58
2023-04-26T04:22:19.744Z,31.57
2023-04-26T04:23:19.717Z,31.70
2023-04-26T04:24:19.672Z,31.75
2023-04-26T04:25:19.641Z,31.68
2023-04-26T04:26:19.669Z,31.69
2023-04-26T04:27:19.566Z,31.70
2023-04-26T04:28:19.519Z,31.59
2023-04-26T04:29:19.523Z,31.48
2023-04-26T04:30:19.429Z,31.59
2023-04-26T04:31:19.471Z,31.66
2023-04-26T04:32:19.329Z,31.58
2023-04-26T04:33:19.305Z,31.55
2023-04-26T04:34:19.228Z,31.54
2023-04-26T04:35:19.183Z,31.44
2023-04-26T04:36:19.134Z,31.49
2023-04-26T04:37:19.091Z,31.56
2023-04-26T04:38:19.038Z,31.59
2023-04-26T04:39:19.006Z,31.52
2023-04-26T04:40:18.965Z,31.61
2023-04-26T04:41:18.899Z,31.57
2023-04-26T04:42:18.857Z,31.63
2023-04-26T04:43:18.810Z,31.57
2023-04-26T04:44:18.769Z,31.48
2023-04-26T04:45:18.721Z,31.54
2023-04-26T04:46:18.699Z,31.48
2023-04-26T04:47:18.616Z,31.46
2023-04-26T04:48:18.620Z,31.45
2023-04-26T04:49:18.530Z,31.45
2023-04-26T04:50:18.497Z,31.44
2023-04-26T04:51:18.443Z,31.47
2023-04-26T04:52:19.039Z,31.47
2023-04-26T04:53:18.353Z,31.50
2023-04-26T04:54:18.302Z,31.52
2023-04-26T04:55:18.285Z,31.53
2023-04-26T04:56:18.234Z,31.55
2023-04-26T04:57:18.194Z,31.42
2023-04-26T04:58:18.145Z,31.43
2023-04-26T04:59:18.094Z,31.49
2023-04-26T05:00:18.045Z,31.48
2023-04-26T05:01:17.987Z,31.49
2023-04-26T05:02:18.084Z,31.41
2023-04-26T05:03:17.970Z,31.43
2023-04-26T05:04:18.084Z,31.42
2023-04-26T05:05:17.791Z,31.46
2023-04-26T05:06:17.717Z,31.46
2023-04-26T05:07:17.684Z,31.46
2023-04-26T05:08:17.665Z,31.45
2023-04-26T05:09:17.608Z,31.45
2023-04-26T05:10:17.554Z,31.41
2023-04-26T05:11:17.507Z,31.40
2023-04-26T05:12:17.465Z,31.35
2023-04-26T05:13:17.570Z,31.33
2023-04-26T05:14:17.375Z,31.36
2023-04-26T05:15:17.327Z,31.35
2023-04-26T05:16:17.342Z,31.36
2023-04-26T05:17:17.242Z,31.34
2023-04-26T05:18:17.206Z,31.36
2023-04-26T05:19:17.157Z,31.46
2023-04-26T05:20:17.110Z,31.42
2023-04-26T05:21:17.068Z,31.54
2023-04-26T05:22:17.033Z,31.62
2023-04-26T05:23:17.073Z,31.71
2023-04-26T05:24:16.931Z,31.90
2023-04-26T05:25:16.890Z,31.98
2023-04-26T05:26:16.848Z,32.11
2023-04-26T05:27:16.789Z,32.23
2023-04-26T05:28:16.746Z,32.63
2023-04-26T05:29:16.702Z,32.74
2023-04-26T05:30:16.679Z,32.86
2023-04-26T05:31:16.669Z,33.09
2023-04-26T05:32:16.573Z,33.05
2023-04-26T05:33:16.570Z,33.13
2023-04-26T05:34:16.485Z,33.15
2023-04-26T05:35:16.411Z,33.13
2023-04-26T05:36:16.362Z,33.16
2023-04-26T05:37:16.299Z,33.15
2023-04-26T05:38:16.251Z,33.14
2023-04-26T05:39:16.200Z,33.10
2023-04-26T05:40:16.158Z,33.08
2023-04-26T05:41:16.164Z,33.04
2023-04-26T05:42:17.840Z,33.00
2023-04-26T05:43:16.029Z,33.01
2023-04-26T05:44:15.988Z,33.01
2023-04-26T05:45:15.950Z,33.01
2023-04-26T05:46:15.941Z,33.04
2023-04-26T05:47:15.869Z,33.01
2023-04-26T05:48:15.888Z,32.94
2023-04-26T05:49:15.766Z,32.92
2023-04-26T05:50:15.720Z,32.87
2023-04-26T05:51:15.694Z,32.85
2023-04-26T05:52:15.616Z,32.83
2023-04-26T05:53:15.585Z,32.82
2023-04-26T05:54:15.527Z,32.87
2023-04-26T05:55:15.466Z,32.77
2023-04-26T05:56:15.465Z,32.69
2023-04-26T05:57:15.396Z,32.60
2023-04-26T05:58:15.293Z,32.59
2023-04-26T05:59:15.240Z,32.55
2023-04-26T06:00:15.223Z,32.52
2023-04-26T06:01:15.104Z,32.48
2023-04-26T06:02:15.093Z,32.48
2023-04-26T06:03:15.201Z,32.46
2023-04-26T06:04:15.196Z,32.43
2023-04-26T06:05:15.010Z,32.37
2023-04-26T06:06:14.732Z,32.35
2023-04-26T06:07:14.655Z,32.33
2023-04-26T06:08:14.579Z,32.34
2023-04-26T06:09:14.503Z,32.30
2023-04-26T06:10:14.422Z,32.29
2023-04-26T06:11:14.354Z,32.31
2023-04-26T06:12:14.284Z,32.33
2023-04-26T06:13:14.187Z,32.34
2023-04-26T06:14:23.522Z,32.24
2023-04-26T06:15:15.010Z,32.20
2023-04-26T06:16:13.921Z,32.19
2023-04-26T06:17:13.944Z,32.17
2023-04-26T06:18:13.733Z,32.10
2023-04-26T06:19:13.595Z,32.07
2023-04-26T06:20:13.504Z,32.06
2023-04-26T06:21:13.433Z,32.00
2023-04-26T06:22:13.323Z,31.97
2023-04-26T06:23:13.289Z,32.09
2023-04-26T06:24:13.099Z,32.04
2023-04-26T06:25:13.005Z,32.22
2023-04-26T06:26:12.888Z,32.30
2023-04-26T06:27:12.785Z,32.73
2023-04-26T06:28:12.700Z,33.21
2023-04-26T06:29:12.571Z,33.68
2023-04-26T06:30:12.470Z,33.61
2023-04-26T06:31:12.419Z,33.63
2023-04-26T06:32:12.265Z,34.16
2023-04-26T06:33:12.225Z,34.44
2023-04-26T06:34:12.072Z,34.58
2023-04-26T06:35:11.975Z,34.73
2023-04-26T06:36:11.866Z,35.06
2023-04-26T06:37:11.769Z,35.17
2023-04-26T06:38:11.661Z,35.29
2023-04-26T06:39:11.577Z,35.32
2023-04-26T06:40:11.559Z,34.22
2023-04-26T06:41:11.370Z,33.16
2023-04-26T06:42:13.033Z,33.71
2023-04-26T06:43:12.067Z,32.48
2023-04-26T06:44:11.197Z,33.34
2023-04-26T06:45:11.121Z,33.15
2023-04-26T06:46:11.052Z,33.25
2023-04-26T06:47:10.951Z,33.23
2023-04-26T06:48:10.907Z,33.57
2023-04-26T06:49:10.791Z,33.44
2023-04-26T06:50:10.720Z,33.37
2023-04-26T06:51:10.631Z,33.33
2023-04-26T06:52:10.562Z,33.09
2023-04-26T06:53:10.497Z,33.12
2023-04-26T06:54:10.395Z,32.49
2023-04-26T06:55:10.327Z,32.17
2023-04-26T06:56:10.226Z,32.49
2023-04-26T06:57:10.138Z,32.56
2023-04-26T06:58:10.055Z,32.16
2023-04-26T06:59:09.965Z,32.07
2023-04-26T07:00:09.916Z,32.05
2023-04-26T07:01:09.827Z,31.90
2023-04-26T07:02:09.771Z,32.01
2023-04-26T07:03:09.969Z,31.97
2023-04-26T07:04:09.767Z,31.94
2023-04-26T07:05:09.593Z,31.80
2023-04-26T07:06:09.406Z,31.48
2023-04-26T07:07:10.513Z,31.65
2023-04-26T07:08:09.254Z,31.31
2023-04-26T07:09:09.132Z,30.94
2023-04-26T07:10:09.615Z,31.01
2023-04-26T07:11:08.996Z,30.39
2023-04-26T07:12:08.826Z,30.91
2023-04-26T07:13:09.688Z,30.97
2023-04-26T07:14:08.639Z,31.20
2023-04-26T07:15:08.550Z,31.35
2023-04-26T07:16:08.683Z,31.55
2023-04-26T07:17:08.335Z,31.60
2023-04-26T07:18:08.259Z,31.77
2023-04-26T07:19:08.122Z,31.71
2023-04-26T07:20:08.042Z,31.88
2023-04-26T07:21:07.930Z,30.61
2023-04-26T07:22:07.832Z,30.14
2023-04-26T07:23:07.715Z,30.76
2023-04-26T07:24:07.628Z,30.16
2023-04-26T07:25:07.534Z,30.61
2023-04-26T07:26:07.419Z,30.75
2023-04-26T07:27:07.316Z,30.81
2023-04-26T07:28:07.203Z,30.89
2023-04-26T07:29:07.644Z,30.79
2023-04-26T07:30:07.000Z,30.76
2023-04-26T07:31:08.744Z,30.55
2023-04-26T07:32:06.837Z,30.61
2023-04-26T07:33:06.792Z,30.33
2023-04-26T07:34:06.613Z,30.31
2023-04-26T07:35:06.504Z,30.28
2023-04-26T07:36:06.394Z,30.35
2023-04-26T07:37:06.295Z,30.25
2023-04-26T07:38:07.131Z,30.15
2023-04-26T07:39:06.111Z,29.97
2023-04-26T07:40:06.010Z,29.86
2023-04-26T07:41:05.898Z,29.70
2023-04-26T07:42:05.801Z,29.81
2023-04-26T07:43:05.695Z,29.43
2023-04-26T07:44:05.607Z,29.52
2023-04-26T07:45:05.523Z,28.85
2023-04-26T07:46:05.422Z,28.83
2023-04-26T07:47:05.313Z,28.54
2023-04-26T07:48:06.171Z,28.60
2023-04-26T07:49:05.110Z,28.59
2023-04-26T07:50:05.016Z,28.67
2023-04-26T07:51:04.925Z,28.67
2023-04-26T07:52:04.808Z,28.58
2023-04-26T07:53:04.721Z,28.67
2023-04-26T07:54:04.621Z,28.84
2023-04-26T07:55:04.534Z,28.47
2023-04-26T07:56:04.444Z,28.43
2023-04-26T07:57:04.347Z,28.53
2023-04-26T07:58:04.244Z,28.31
2023-04-26T07:59:04.185Z,28.18
2023-04-26T08:00:04.034Z,28.04
2023-04-26T08:01:03.939Z,27.77
2023-04-26T08:02:03.855Z,27.02
2023-04-26T08:03:03.901Z,26.43
2023-04-26T08:04:03.848Z,26.49
2023-04-26T08:05:04.264Z,26.31
2023-04-26T08:06:03.549Z,26.23
2023-04-26T08:07:03.343Z,25.81
2023-04-26T08:08:03.230Z,25.54
2023-04-26T08:09:03.125Z,25.57
2023-04-26T08:10:03.039Z,25.27
2023-04-26T08:11:02.923Z,24.88
2023-04-26T08:12:02.866Z,24.81
2023-04-26T08:13:02.725Z,24.86
2023-04-26T08:14:02.632Z,25.31
2023-04-26T08:15:02.540Z,25.45
2023-04-26T08:16:03.155Z,25.08
2023-04-26T08:17:02.414Z,25.09
2023-04-26T08:18:02.271Z,25.88
2023-04-26T08:19:02.138Z,26.33
2023-04-26T08:20:02.036Z,25.87
2023-04-26T08:21:01.934Z,25.88
2023-04-26T08:22:01.824Z,25.41
2023-04-26T08:23:01.726Z,25.23
2023-04-26T08:24:01.617Z,25.24
2023-04-26T08:25:01.514Z,24.73
2023-04-26T08:26:01.426Z,24.54
2023-04-26T08:27:01.318Z,24.00
2023-04-26T08:28:01.219Z,24.40
2023-04-26T08:29:01.108Z,24.96
2023-04-26T08:30:01.131Z,25.35
2023-04-26T08:31:01.686Z,25.56
2023-04-26T08:32:00.915Z,25.90
2023-04-26T08:33:00.858Z,26.13
2023-04-26T08:34:00.737Z,26.41
2023-04-26T08:35:00.641Z,26.46
2023-04-26T08:36:00.552Z,26.68
2023-04-26T08:37:00.524Z,26.75
2023-04-26T08:38:00.519Z,26.77
2023-04-26T08:39:00.455Z,26.88
2023-04-26T08:40:00.398Z,27.24
2023-04-26T08:41:00.385Z,27.21
2023-04-26T08:42:00.320Z,27.28
2023-04-26T08:43:00.260Z,27.28
2023-04-26T08:44:00.210Z,27.41
2023-04-26T08:45:00.164Z,27.09
2023-04-26T08:46:00.220Z,27.29
2023-04-26T08:47:00.143Z,27.47
2023-04-26T08:48:00.692Z,27.63
2023-04-26T08:48:59.881Z,27.51
2023-04-26T08:49:59.874Z,27.48
2023-04-26T08:50:59.751Z,27.72
2023-04-26T08:51:59.671Z,27.95
2023-04-26T08:52:59.607Z,28.20
2023-04-26T08:53:59.522Z,28.08
2023-04-26T08:54:59.464Z,28.38
2023-04-26T08:55:59.388Z,28.25
2023-04-26T08:56:59.284Z,28.29
2023-04-26T08:57:59.195Z,28.42
2023-04-26T08:58:59.110Z,28.22
2023-04-26T08:59:59.029Z,28.27
2023-04-26T09:00:58.944Z,28.51
2023-04-26T09:01:58.901Z,28.49
2023-04-26T09:02:58.864Z,28.99
2023-04-26T09:03:58.937Z,29.13
2023-04-26T09:04:58.739Z,29.07
2023-04-26T09:05:58.460Z,28.61
2023-04-26T09:06:58.360Z,28.89
2023-04-26T09:07:58.245Z,28.87
2023-04-26T09:08:58.153Z,28.99
2023-04-26T09:09:58.052Z,29.09
2023-04-26T09:10:57.975Z,29.03
2023-04-26T09:11:57.934Z,29.05
2023-04-26T09:12:57.739Z,29.11
2023-04-26T09:13:57.754Z,29.39
2023-04-26T09:14:57.511Z,29.47
2023-04-26T09:15:57.505Z,29.17
2023-04-26T09:16:57.349Z,29.58
2023-04-26T09:17:57.244Z,29.89
2023-04-26T09:18:57.165Z,29.64
2023-04-26T09:19:57.042Z,29.43
2023-04-26T09:20:56.913Z,27.31
2023-04-26T09:21:56.816Z,28.42
2023-04-26T09:22:56.728Z,27.84
2023-04-26T09:23:56.704Z,28.04
2023-04-26T09:24:56.540Z,28.04
2023-04-26T09:25:56.453Z,28.04
2023-04-26T09:26:56.362Z,27.84
2023-04-26T09:27:56.279Z,27.84
2023-04-26T09:28:56.166Z,27.51
2023-04-26T09:29:56.078Z,27.58
2023-04-26T09:30:56.032Z,27.66
2023-04-26T09:31:55.934Z,27.71
2023-04-26T09:32:55.842Z,27.71
2023-04-26T09:34:02.321Z,27.70
2023-04-26T09:34:55.568Z,26.83
2023-04-26T09:35:55.684Z,27.14
2023-04-26T09:36:55.333Z,27.07
2023-04-26T09:38:00.241Z,27.14
2023-04-26T09:38:56.110Z,27.10
2023-04-26T09:39:55.012Z,27.19
2023-04-26T09:40:55.693Z,26.80
2023-04-26T09:41:54.775Z,26.82
2023-04-26T09:42:54.673Z,26.70
2023-04-26T09:43:54.567Z,26.85
2023-04-26T09:44:54.453Z,26.60
2023-04-26T09:45:54.325Z,26.59
2023-04-26T09:46:54.270Z,26.97
2023-04-26T09:47:54.131Z,27.04
2023-04-26T09:48:54.181Z,27.16
2023-04-26T09:49:54.040Z,27.06
2023-04-26T09:50:53.824Z,26.76
2023-04-26T09:51:53.673Z,27.15
2023-04-26T09:52:53.550Z,27.47
2023-04-26T09:53:55.609Z,27.47
2023-04-26T09:54:53.337Z,27.77
2023-04-26T09:55:53.206Z,28.02
2023-04-26T09:56:53.097Z,27.65
2023-04-26T09:57:52.981Z,27.81
2023-04-26T09:58:53.224Z,27.84
2023-04-26T09:59:54.993Z,28.26
2023-04-26T10:00:52.752Z,27.96
2023-04-26T10:01:52.517Z,27.59
2023-04-26T10:02:52.514Z,27.72
2023-04-26T10:03:52.447Z,28.04
2023-04-26T10:04:52.228Z,27.71
2023-04-26T10:05:52.089Z,27.99
2023-04-26T10:06:51.981Z,28.31
2023-04-26T10:07:51.881Z,28.06
2023-04-26T10:08:51.938Z,28.16
2023-04-26T10:09:51.672Z,28.04
2023-04-26T10:10:51.554Z,26.38
2023-04-26T10:11:51.481Z,28.20
2023-04-26T10:12:51.328Z,28.14
2023-04-26T10:13:51.236Z,28.02
2023-04-26T10:14:51.109Z,27.55
2023-04-26T10:15:51.012Z,27.25
2023-04-26T10:16:50.923Z,27.11
2023-04-26T10:17:52.138Z,27.19
2023-04-26T10:18:51.086Z,27.21
2023-04-26T10:19:50.608Z,27.14
2023-04-26T10:20:50.443Z,27.11
2023-04-26T10:21:50.325Z,27.09
2023-04-26T10:22:50.238Z,27.11
2023-04-26T10:23:50.113Z,27.09
2023-04-26T10:24:49.998Z,27.10
2023-04-26T10:25:49.936Z,27.10
2023-04-26T10:26:49.854Z,27.08
2023-04-26T10:27:49.661Z,27.11
2023-04-26T10:28:51.789Z,27.09
2023-04-26T10:29:49.451Z,27.06
2023-04-26T10:30:49.325Z,27.04
2023-04-26T10:31:49.292Z,27.01
2023-04-26T10:32:49.147Z,26.97
2023-04-26T10:33:49.001Z,26.97
2023-04-26T10:34:48.890Z,27.00
2023-04-26T10:35:48.774Z,26.99
2023-04-26T10:36:48.652Z,27.01
2023-04-26T10:37:48.565Z,26.97
2023-04-26T10:38:48.449Z,26.94
2023-04-26T10:39:48.327Z,26.94
2023-04-26T10:40:48.204Z,26.92
2023-04-26T10:41:48.094Z,26.93
2023-04-26T10:42:47.968Z,26.91
2023-04-26T10:43:47.856Z,26.89
2023-04-26T10:44:47.740Z,26.91
2023-04-26T10:45:47.647Z,26.90
2023-04-26T10:46:47.511Z,26.87
2023-04-26T10:47:47.486Z,26.85
2023-04-26T10:48:47.290Z,26.81
2023-04-26T10:49:47.190Z,26.79
2023-04-26T10:50:47.103Z,26.82
2023-04-26T10:51:46.981Z,26.85
2023-04-26T10:52:46.882Z,26.88
2023-04-26T10:53:46.809Z,26.94
2023-04-26T10:54:46.693Z,26.95
2023-04-26T10:55:46.593Z,26.94
2023-04-26T10:56:46.494Z,26.98
2023-04-26T10:57:46.395Z,26.98
2023-04-26T10:58:46.310Z,26.98
2023-04-26T10:59:54.247Z,26.94
2023-04-26T11:00:47.075Z,26.95
2023-04-26T11:01:46.098Z,26.92
2023-04-26T11:02:45.933Z,26.89
2023-04-26T11:03:45.871Z,26.86
2023-04-26T11:04:45.644Z,26.85
2023-04-26T11:05:45.511Z,26.88
2023-04-26T11:06:45.395Z,26.87
2023-04-26T11:07:45.279Z,26.86
2023-04-26T11:08:45.168Z,26.90
2023-04-26T11:09:45.056Z,26.89
2023-04-26T11:10:44.936Z,26.88
2023-04-26T11:11:44.857Z,26.91
2023-04-26T11:12:44.724Z,26.86
2023-04-26T11:13:44.602Z,27.04
2023-04-26T11:14:44.501Z,27.51
2023-04-26T11:15:44.482Z,27.42
2023-04-26T11:16:44.418Z,27.49
2023-04-26T11:17:44.235Z,27.37
2023-04-26T11:18:44.097Z,27.29
2023-04-26T11:19:43.984Z,27.31
2023-04-26T11:20:43.883Z,27.17
2023-04-26T11:21:43.786Z,27.13
2023-04-26T11:22:43.709Z,27.13
2023-04-26T11:23:43.573Z,27.16
2023-04-26T11:24:43.483Z,27.12
2023-04-26T11:25:43.409Z,27.12
2023-04-26T11:26:43.386Z,27.14
2023-04-26T11:27:43.269Z,27.13
2023-04-26T11:28:43.187Z,27.12
2023-04-26T11:29:43.114Z,27.11
2023-04-26T11:30:43.034Z,27.10
2023-04-26T11:31:42.985Z,27.11
2023-04-26T11:32:42.927Z,27.10
2023-04-26T11:33:42.817Z,27.06
2023-04-26T11:34:42.738Z,27.08
2023-04-26T11:35:42.662Z,27.07
2023-04-26T11:36:42.614Z,27.02
2023-04-26T11:37:42.510Z,27.02
2023-04-26T11:38:42.435Z,27.03
2023-04-26T11:39:42.378Z,27.04
2023-04-26T11:40:42.307Z,26.99
2023-04-26T11:41:42.236Z,26.97
2023-04-26T11:42:42.249Z,26.98
2023-04-26T11:43:42.175Z,26.96
2023-04-26T11:44:42.042Z,26.98
2023-04-26T11:45:41.949Z,26.92
2023-04-26T11:46:41.964Z,26.92
2023-04-26T11:47:41.839Z,26.91
2023-04-26T11:48:41.761Z,26.94
2023-04-26T11:49:41.711Z,26.91
2023-04-26T11:50:41.631Z,26.90
2023-04-26T11:51:41.569Z,26.90
2023-04-26T11:52:41.498Z,26.88
2023-04-26T11:53:41.431Z,26.87
2023-04-26T11:54:41.364Z,26.85
2023-04-26T11:55:41.298Z,26.83
2023-04-26T11:56:41.232Z,26.80
2023-04-26T11:57:41.169Z,26.81
2023-04-26T11:58:41.147Z,26.84
2023-04-26T11:59:41.038Z,26.83
2023-04-26T12:00:40.974Z,26.82
2023-04-26T12:01:40.947Z,26.78
2023-04-26T12:02:41.020Z,26.76
2023-04-26T12:03:40.954Z,26.77
2023-04-26T12:04:40.970Z,26.78
2023-04-26T12:05:40.724Z,26.78
2023-04-26T12:06:40.617Z,26.80
2023-04-26T12:07:40.555Z,26.78
2023-04-26T12:08:40.499Z,26.81
2023-04-26T12:09:40.462Z,26.79
2023-04-26T12:10:40.414Z,26.80
2023-04-26T12:11:40.334Z,26.82
2023-04-26T12:12:40.284Z,26.86
2023-04-26T12:13:40.329Z,26.83
2023-04-26T12:14:40.181Z,26.83
2023-04-26T12:15:40.118Z,26.79
2023-04-26T12:16:40.076Z,26.82
2023-04-26T12:17:40.044Z,26.83
2023-04-26T12:18:39.975Z,26.81
2023-04-26T12:19:39.904Z,26.80
2023-04-26T12:20:39.853Z,26.83
2023-04-26T12:21:39.779Z,26.82
2023-04-26T12:22:39.717Z,26.89
2023-04-26T12:23:39.654Z,26.90
2023-04-26T12:24:39.604Z,26.90
2023-04-26T12:25:39.602Z,26.90
2023-04-26T12:26:39.570Z,26.93
2023-04-26T12:27:39.492Z,26.93
2023-04-26T12:28:39.425Z,26.92
2023-04-26T12:29:39.376Z,26.93
2023-04-26T12:30:39.335Z,26.92
2023-04-26T12:31:39.367Z,26.92
2023-04-26T12:32:39.274Z,26.94
2023-04-26T12:33:39.251Z,26.91
2023-04-26T12:34:39.154Z,26.89
2023-04-26T12:35:39.115Z,26.87
2023-04-26T12:36:39.074Z,26.87
2023-04-26T12:37:39.028Z,26.88
2023-04-26T12:38:38.992Z,26.86
2023-04-26T12:39:38.942Z,26.87
2023-04-26T12:40:38.893Z,26.89
2023-04-26T12:41:38.842Z,26.89
2023-04-26T12:42:38.783Z,26.89
2023-04-26T12:43:38.746Z,26.91
2023-04-26T12:44:38.696Z,26.91
2023-04-26T12:45:38.723Z,26.85
2023-04-26T12:46:38.766Z,26.90
2023-04-26T12:47:38.632Z,26.88
2023-04-26T12:48:38.542Z,26.84
2023-04-26T12:49:38.495Z,26.87
2023-04-26T12:50:38.458Z,26.82
2023-04-26T12:51:38.412Z,26.83